sensor_id;sensor_type;location;lat;lon;timestamp;pressure;altitude;pressure_sealevel;temperature;humidity
49943;BME280;36011;53.362;58.948;2023-10-09T00:00:01;94864.91;;;7.75;81.15
49943;BME280;36011;53.362;58.948;2023-10-09T00:03:22;94864.72;;;7.67;81.17
49943;BME280;36011;53.362;58.948;2023-10-09T00:06:26;94864.53;;;7.58;82.16
49943;BME280;36011;53.362;58.948;2023-10-09T00:09:42;94870.66;;;7.69;81.32
49943;BME280;36011;53.362;58.948;2023-10-09T00:12:54;94866.78;;;7.63;81.33
49943;BME280;36011;53.362;58.948;2023-10-09T00:16:06;94866.81;;;7.73;80.77
49943;BME280;36011;53.362;58.948;2023-10-09T00:19:16;94854.41;;;7.65;80.84
49943;BME280;36011;53.362;58.948;2023-10-09T00:22:34;94861.25;;;7.56;82.09
49943;BME280;36011;53.362;58.948;2023-10-09T00:25:39;94845.53;;;7.56;82.29
49943;BME280;36011;53.362;58.948;2023-10-09T00:28:50;94852.41;;;7.57;82.60
49943;BME280;36011;53.362;58.948;2023-10-09T00:31:56;94835.06;;;7.56;82.97
49943;BME280;36011;53.362;58.948;2023-10-09T00:35:05;94858.75;;;7.55;83.30
49943;BME280;36011;53.362;58.948;2023-10-09T00:38:24;94837.81;;;7.55;83.41
49943;BME280;36011;53.362;58.948;2023-10-09T00:41:41;94855.19;;;7.56;83.54
49943;BME280;36011;53.362;58.948;2023-10-09T00:44:45;94837.44;;;7.59;82.76
49943;BME280;36011;53.362;58.948;2023-10-09T00:47:51;94838.63;;;7.55;83.40
49943;BME280;36011;53.362;58.948;2023-10-09T00:51:02;94842.56;;;7.71;82.50
49943;BME280;36011;53.362;58.948;2023-10-09T00:54:16;94831.66;;;7.65;82.45
49943;BME280;36011;53.362;58.948;2023-10-09T00:57:20;94822.38;;;7.52;82.70
49943;BME280;36011;53.362;58.948;2023-10-09T01:00:26;94829.50;;;7.50;83.47
49943;BME280;36011;53.362;58.948;2023-10-09T01:03:47;94827.75;;;7.50;83.63
49943;BME280;36011;53.362;58.948;2023-10-09T01:06:52;94820.41;;;7.44;84.34
49943;BME280;36011;53.362;58.948;2023-10-09T01:10:14;94835.84;;;7.47;84.25
49943;BME280;36011;53.362;58.948;2023-10-09T01:13:26;94817.28;;;7.50;84.26
49943;BME280;36011;53.362;58.948;2023-10-09T01:16:45;94842.78;;;7.58;83.97
49943;BME280;36011;53.362;58.948;2023-10-09T01:19:49;94829.25;;;7.53;84.03
49943;BME280;36011;53.362;58.948;2023-10-09T01:22:56;94838.91;;;7.52;84.55
49943;BME280;36011;53.362;58.948;2023-10-09T01:26:00;94833.66;;;7.52;84.79
49943;BME280;36011;53.362;58.948;2023-10-09T01:29:03;94831.19;;;7.51;85.09
49943;BME280;36011;53.362;58.948;2023-10-09T01:32:08;94841.25;;;7.55;84.93
49943;BME280;36011;53.362;58.948;2023-10-09T01:35:20;94831.94;;;7.62;84.89
49943;BME280;36011;53.362;58.948;2023-10-09T01:38:22;94828.78;;;7.69;84.60
49943;BME280;36011;53.362;58.948;2023-10-09T01:41:37;94843.09;;;7.64;84.52
49943;BME280;36011;53.362;58.948;2023-10-09T01:44:50;94844.66;;;7.77;83.95
49943;BME280;36011;53.362;58.948;2023-10-09T01:47:56;94846.38;;;7.67;84.18
49943;BME280;36011;53.362;58.948;2023-10-09T01:51:00;94854.41;;;7.65;84.66
49943;BME280;36011;53.362;58.948;2023-10-09T01:54:04;94850.53;;;7.69;85.08
49943;BME280;36011;53.362;58.948;2023-10-09T01:57:08;94851.38;;;7.70;85.52
49943;BME280;36011;53.362;58.948;2023-10-09T02:00:19;94853.72;;;7.73;85.45
49943;BME280;36011;53.362;58.948;2023-10-09T02:03:28;94853.03;;;7.71;85.46
49943;BME280;36011;53.362;58.948;2023-10-09T02:06:33;94865.16;;;7.72;85.56
49943;BME280;36011;53.362;58.948;2023-10-09T02:09:39;94867.06;;;7.70;85.62
49943;BME280;36011;53.362;58.948;2023-10-09T02:12:52;94858.53;;;7.68;85.62
49943;BME280;36011;53.362;58.948;2023-10-09T02:16:06;94861.25;;;7.56;85.25
49943;BME280;36011;53.362;58.948;2023-10-09T02:19:18;94870.81;;;7.46;85.57
49943;BME280;36011;53.362;58.948;2023-10-09T02:22:38;94864.19;;;7.42;85.57
49943;BME280;36011;53.362;58.948;2023-10-09T02:25:40;94869.44;;;7.42;85.12
49943;BME280;36011;53.362;58.948;2023-10-09T02:28:46;94863.19;;;7.33;85.32
49943;BME280;36011;53.362;58.948;2023-10-09T02:31:59;94876.91;;;7.26;85.31
49943;BME280;36011;53.362;58.948;2023-10-09T02:35:16;94873.47;;;7.25;85.28
49943;BME280;36011;53.362;58.948;2023-10-09T02:38:39;94883.59;;;7.18;84.91
49943;BME280;36011;53.362;58.948;2023-10-09T02:41:50;94884.09;;;7.12;84.68
49943;BME280;36011;53.362;58.948;2023-10-09T02:44:56;94892.00;;;7.01;84.64
49943;BME280;36011;53.362;58.948;2023-10-09T02:48:05;94915.09;;;6.96;84.73
49943;BME280;36011;53.362;58.948;2023-10-09T02:51:15;94905.78;;;7.03;84.16
49943;BME280;36011;53.362;58.948;2023-10-09T02:54:31;94891.59;;;6.85;84.55
49943;BME280;36011;53.362;58.948;2023-10-09T02:57:36;94892.88;;;6.90;84.69
49943;BME280;36011;53.362;58.948;2023-10-09T03:00:38;94901.81;;;6.88;84.05
49943;BME280;36011;53.362;58.948;2023-10-09T03:03:43;94912.72;;;6.93;83.03
49943;BME280;36011;53.362;58.948;2023-10-09T03:06:49;94905.13;;;6.90;81.96
49943;BME280;36011;53.362;58.948;2023-10-09T03:09:56;94915.72;;;6.88;81.88
49943;BME280;36011;53.362;58.948;2023-10-09T03:12:58;94919.75;;;6.92;81.19
49943;BME280;36011;53.362;58.948;2023-10-09T03:16:07;94925.13;;;6.91;81.26
49943;BME280;36011;53.362;58.948;2023-10-09T03:19:13;94913.44;;;6.95;80.15
49943;BME280;36011;53.362;58.948;2023-10-09T03:22:15;94899.06;;;6.89;79.54
49943;BME280;36011;53.362;58.948;2023-10-09T03:25:17;94926.03;;;6.90;79.81
49943;BME280;36011;53.362;58.948;2023-10-09T03:28:20;94914.19;;;6.86;79.88
49943;BME280;36011;53.362;58.948;2023-10-09T03:31:24;94918.09;;;6.91;79.66
49943;BME280;36011;53.362;58.948;2023-10-09T03:34:26;94923.44;;;6.90;79.43
49943;BME280;36011;53.362;58.948;2023-10-09T03:37:29;94924.91;;;6.83;79.29
49943;BME280;36011;53.362;58.948;2023-10-09T03:40:44;94926.72;;;6.71;79.64
49943;BME280;36011;53.362;58.948;2023-10-09T03:43:50;94938.69;;;6.73;79.28
49943;BME280;36011;53.362;58.948;2023-10-09T03:46:55;94954.88;;;6.67;79.54
49943;BME280;36011;53.362;58.948;2023-10-09T03:49:59;94948.72;;;6.68;79.29
49943;BME280;36011;53.362;58.948;2023-10-09T03:53:09;94950.50;;;6.57;80.02
49943;BME280;36011;53.362;58.948;2023-10-09T03:56:16;94942.03;;;6.64;79.87
49943;BME280;36011;53.362;58.948;2023-10-09T03:59:27;94944.41;;;6.67;80.21
49943;BME280;36011;53.362;58.948;2023-10-09T04:02:32;94932.53;;;6.74;79.74
49943;BME280;36011;53.362;58.948;2023-10-09T04:05:38;94934.94;;;6.66;80.51
49943;BME280;36011;53.362;58.948;2023-10-09T04:08:47;94943.69;;;6.77;80.16
49943;BME280;36011;53.362;58.948;2023-10-09T04:11:55;94949.75;;;6.77;79.98
49943;BME280;36011;53.362;58.948;2023-10-09T04:15:15;94948.53;;;6.81;79.35
49943;BME280;36011;53.362;58.948;2023-10-09T04:18:19;94953.50;;;6.84;79.11
49943;BME280;36011;53.362;58.948;2023-10-09T04:21:36;94968.38;;;6.84;79.30
49943;BME280;36011;53.362;58.948;2023-10-09T04:24:38;94963.31;;;7.03;78.08
49943;BME280;36011;53.362;58.948;2023-10-09T04:27:45;94972.34;;;6.99;78.73
49943;BME280;36011;53.362;58.948;2023-10-09T04:30:52;94982.59;;;7.02;78.70
49943;BME280;36011;53.362;58.948;2023-10-09T04:33:58;94983.78;;;6.98;78.10
49943;BME280;36011;53.362;58.948;2023-10-09T04:37:20;94985.91;;;7.04;78.31
49943;BME280;36011;53.362;58.948;2023-10-09T04:40:38;94983.44;;;7.24;77.69
49943;BME280;36011;53.362;58.948;2023-10-09T04:43:54;94999.66;;;7.38;77.19
49943;BME280;36011;53.362;58.948;2023-10-09T04:47:18;94997.13;;;7.48;77.40
49943;BME280;36011;53.362;58.948;2023-10-09T04:50:23;95000.78;;;7.78;75.36
49943;BME280;36011;53.362;58.948;2023-10-09T04:53:28;95012.44;;;7.95;75.61
49943;BME280;36011;53.362;58.948;2023-10-09T04:56:30;95014.63;;;8.10;75.13
49943;BME280;36011;53.362;58.948;2023-10-09T04:59:35;95031.13;;;8.32;74.29
49943;BME280;36011;53.362;58.948;2023-10-09T05:02:50;95035.28;;;8.56;74.26
49943;BME280;36011;53.362;58.948;2023-10-09T05:06:23;95038.34;;;8.61;73.59
49943;BME280;36011;53.362;58.948;2023-10-09T05:09:43;95036.28;;;8.74;72.12
49943;BME280;36011;53.362;58.948;2023-10-09T05:13:01;95048.44;;;8.75;71.97
49943;BME280;36011;53.362;58.948;2023-10-09T05:19:26;95065.72;;;8.77;71.37
49943;BME280;36011;53.362;58.948;2023-10-09T05:22:36;95074.69;;;8.75;71.45
49943;BME280;36011;53.362;58.948;2023-10-09T05:25:38;95076.63;;;8.83;70.68
49943;BME280;36011;53.362;58.948;2023-10-09T05:28:56;95071.16;;;8.95;71.14
49943;BME280;36011;53.362;58.948;2023-10-09T05:32:06;95078.41;;;9.32;70.66
49943;BME280;36011;53.362;58.948;2023-10-09T05:35:17;95077.06;;;9.77;66.44
49943;BME280;36011;53.362;58.948;2023-10-09T05:38:21;95080.94;;;9.82;64.28
49943;BME280;36011;53.362;58.948;2023-10-09T05:41:29;95098.50;;;9.72;64.62
49943;BME280;36011;53.362;58.948;2023-10-09T05:44:53;95099.16;;;9.55;64.68
49943;BME280;36011;53.362;58.948;2023-10-09T05:48:17;95101.81;;;9.74;64.20
49943;BME280;36011;53.362;58.948;2023-10-09T05:51:21;95104.41;;;10.13;62.52
49943;BME280;36011;53.362;58.948;2023-10-09T05:54:42;95100.84;;;10.33;61.49
49943;BME280;36011;53.362;58.948;2023-10-09T05:58:16;95101.16;;;11.05;57.51
49943;BME280;36011;53.362;58.948;2023-10-09T06:01:25;95117.88;;;11.41;55.98
49943;BME280;36011;53.362;58.948;2023-10-09T06:04:48;95118.56;;;11.61;54.63
49943;BME280;36011;53.362;58.948;2023-10-09T06:07:58;95120.19;;;11.17;55.22
49943;BME280;36011;53.362;58.948;2023-10-09T06:11:12;95125.91;;;11.12;56.66
49943;BME280;36011;53.362;58.948;2023-10-09T06:14:34;95117.06;;;11.77;55.53
49943;BME280;36011;53.362;58.948;2023-10-09T06:17:39;95116.00;;;12.41;53.16
49943;BME280;36011;53.362;58.948;2023-10-09T06:20:54;95109.56;;;12.62;51.90
49943;BME280;36011;53.362;58.948;2023-10-09T06:24:27;95131.03;;;12.67;50.66
49943;BME280;36011;53.362;58.948;2023-10-09T06:27:37;95134.28;;;12.17;52.05
49943;BME280;36011;53.362;58.948;2023-10-09T06:30:40;95145.72;;;12.43;52.04
49943;BME280;36011;53.362;58.948;2023-10-09T06:33:51;95155.59;;;12.05;52.30
49943;BME280;36011;53.362;58.948;2023-10-09T06:37:21;95157.78;;;11.92;52.75
49943;BME280;36011;53.362;58.948;2023-10-09T06:40:26;95168.03;;;11.67;53.71
49943;BME280;36011;53.362;58.948;2023-10-09T06:43:54;95163.41;;;11.24;55.07
49943;BME280;36011;53.362;58.948;2023-10-09T06:46:58;95173.50;;;10.91;55.65
49943;BME280;36011;53.362;58.948;2023-10-09T06:50:11;95168.34;;;10.90;54.55
49943;BME280;36011;53.362;58.948;2023-10-09T06:53:23;95171.72;;;10.72;54.87
49943;BME280;36011;53.362;58.948;2023-10-09T06:56:47;95188.25;;;10.65;54.92
49943;BME280;36011;53.362;58.948;2023-10-09T07:00:00;95192.13;;;10.51;53.32
49943;BME280;36011;53.362;58.948;2023-10-09T07:03:36;95193.50;;;10.36;53.91
49943;BME280;36011;53.362;58.948;2023-10-09T07:06:56;95195.75;;;10.40;52.89
49943;BME280;36011;53.362;58.948;2023-10-09T07:10:01;95196.00;;;10.27;53.59
49943;BME280;36011;53.362;58.948;2023-10-09T07:13:23;95199.31;;;10.49;53.56
49943;BME280;36011;53.362;58.948;2023-10-09T07:16:26;95200.03;;;10.51;53.17
49943;BME280;36011;53.362;58.948;2023-10-09T07:19:40;95207.63;;;10.44;53.62
49943;BME280;36011;53.362;58.948;2023-10-09T07:22:43;95206.38;;;10.58;53.89
49943;BME280;36011;53.362;58.948;2023-10-09T07:26:03;95211.47;;;10.69;53.70
49943;BME280;36011;53.362;58.948;2023-10-09T07:29:23;95214.25;;;10.77;54.03
49943;BME280;36011;53.362;58.948;2023-10-09T07:32:32;95223.91;;;10.96;53.70
49943;BME280;36011;53.362;58.948;2023-10-09T07:35:40;95207.13;;;11.07;52.52
49943;BME280;36011;53.362;58.948;2023-10-09T07:38:52;95222.44;;;11.21;52.93
49943;BME280;36011;53.362;58.948;2023-10-09T07:42:01;95219.13;;;11.19;52.30
49943;BME280;36011;53.362;58.948;2023-10-09T07:45:16;95216.00;;;10.96;52.71
49943;BME280;36011;53.362;58.948;2023-10-09T07:48:27;95244.81;;;11.45;51.98
49943;BME280;36011;53.362;58.948;2023-10-09T07:51:45;95252.59;;;12.02;50.81
49943;BME280;36011;53.362;58.948;2023-10-09T07:54:50;95251.97;;;12.18;50.46
49943;BME280;36011;53.362;58.948;2023-10-09T07:57:56;95260.78;;;12.26;50.11
49943;BME280;36011;53.362;58.948;2023-10-09T08:01:02;95265.50;;;12.23;50.38
49943;BME280;36011;53.362;58.948;2023-10-09T08:04:20;95277.91;;;11.95;50.13
49943;BME280;36011;53.362;58.948;2023-10-09T08:07:41;95276.78;;;11.03;51.76
49943;BME280;36011;53.362;58.948;2023-10-09T08:10:58;95292.56;;;10.25;53.29
49943;BME280;36011;53.362;58.948;2023-10-09T08:14:21;95295.38;;;9.53;55.47
49943;BME280;36011;53.362;58.948;2023-10-09T08:17:35;95294.91;;;9.17;56.49
49943;BME280;36011;53.362;58.948;2023-10-09T08:20:41;95312.41;;;8.86;57.80
49943;BME280;36011;53.362;58.948;2023-10-09T08:24:03;95315.84;;;8.65;58.10
49943;BME280;36011;53.362;58.948;2023-10-09T08:27:09;95337.00;;;8.52;58.10
49943;BME280;36011;53.362;58.948;2023-10-09T08:30:49;95334.63;;;8.38;55.73
49943;BME280;36011;53.362;58.948;2023-10-09T08:33:53;95337.50;;;8.35;54.79
49943;BME280;36011;53.362;58.948;2023-10-09T08:37:06;95329.75;;;8.33;55.52
49943;BME280;36011;53.362;58.948;2023-10-09T08:40:10;95334.28;;;8.43;55.64
49943;BME280;36011;53.362;58.948;2023-10-09T08:43:22;95316.22;;;8.61;55.29
49943;BME280;36011;53.362;58.948;2023-10-09T08:46:27;95317.06;;;8.82;53.35
49943;BME280;36011;53.362;58.948;2023-10-09T08:49:30;95329.97;;;8.74;52.25
49943;BME280;36011;53.362;58.948;2023-10-09T08:52:34;95340.97;;;8.68;51.09
49943;BME280;36011;53.362;58.948;2023-10-09T08:55:40;95336.78;;;8.44;51.33
49943;BME280;36011;53.362;58.948;2023-10-09T08:58:43;95348.22;;;8.21;51.62
49943;BME280;36011;53.362;58.948;2023-10-09T09:01:46;95356.84;;;8.00;52.20
49943;BME280;36011;53.362;58.948;2023-10-09T09:04:53;95342.94;;;7.88;52.80
49943;BME280;36011;53.362;58.948;2023-10-09T09:07:58;95328.03;;;7.89;53.02
49943;BME280;36011;53.362;58.948;2023-10-09T09:11:11;95295.69;;;7.90;52.82
49943;BME280;36011;53.362;58.948;2023-10-09T09:14:19;95290.19;;;8.04;52.90
49943;BME280;36011;53.362;58.948;2023-10-09T09:17:30;95319.22;;;8.13;52.84
49943;BME280;36011;53.362;58.948;2023-10-09T09:20:33;95318.72;;;8.19;52.96
49943;BME280;36011;53.362;58.948;2023-10-09T09:24:03;95303.66;;;8.43;52.08
49943;BME280;36011;53.362;58.948;2023-10-09T09:27:16;95329.81;;;8.54;50.99
49943;BME280;36011;53.362;58.948;2023-10-09T09:30:27;95320.91;;;8.46;50.26
49943;BME280;36011;53.362;58.948;2023-10-09T09:33:34;95325.47;;;8.32;49.48
49943;BME280;36011;53.362;58.948;2023-10-09T09:40:04;95337.63;;;8.66;48.68
49943;BME280;36011;53.362;58.948;2023-10-09T09:43:27;95329.94;;;8.85;47.38
49943;BME280;36011;53.362;58.948;2023-10-09T09:46:32;95337.75;;;8.75;47.45
49943;BME280;36011;53.362;58.948;2023-10-09T09:49:36;95354.75;;;8.81;46.79
49943;BME280;36011;53.362;58.948;2023-10-09T09:52:44;95365.75;;;8.75;46.97
49943;BME280;36011;53.362;58.948;2023-10-09T09:55:56;95374.03;;;8.59;47.16
49943;BME280;36011;53.362;58.948;2023-10-09T09:59:09;95372.75;;;8.42;47.39
49943;BME280;36011;53.362;58.948;2023-10-09T10:02:18;95362.84;;;8.46;47.10
49943;BME280;36011;53.362;58.948;2023-10-09T10:05:22;95350.53;;;8.58;45.60
49943;BME280;36011;53.362;58.948;2023-10-09T10:08:24;95347.69;;;8.61;45.16
49943;BME280;36011;53.362;58.948;2023-10-09T10:11:47;95342.66;;;8.58;44.67
49943;BME280;36011;53.362;58.948;2023-10-09T10:14:59;95337.25;;;8.49;44.78
49943;BME280;36011;53.362;58.948;2023-10-09T10:18:08;95331.53;;;8.33;44.36
49943;BME280;36011;53.362;58.948;2023-10-09T10:21:12;95342.28;;;8.19;44.69
49943;BME280;36011;53.362;58.948;2023-10-09T10:27:34;95337.16;;;8.17;44.61
49943;BME280;36011;53.362;58.948;2023-10-09T10:30:46;95370.56;;;7.93;45.28
49943;BME280;36011;53.362;58.948;2023-10-09T10:36:58;95367.06;;;7.58;45.83
49943;BME280;36011;53.362;58.948;2023-10-09T10:40:02;95365.06;;;7.51;46.44
49943;BME280;36011;53.362;58.948;2023-10-09T10:43:21;95360.19;;;7.57;46.93
49943;BME280;36011;53.362;58.948;2023-10-09T10:46:41;95355.16;;;7.32;48.30
49943;BME280;36011;53.362;58.948;2023-10-09T10:49:56;95355.41;;;7.40;48.79
49943;BME280;36011;53.362;58.948;2023-10-09T10:53:16;95353.63;;;7.40;48.54
49943;BME280;36011;53.362;58.948;2023-10-09T10:56:23;95378.25;;;7.38;49.00
49943;BME280;36011;53.362;58.948;2023-10-09T10:59:42;95371.44;;;7.24;49.67
49943;BME280;36011;53.362;58.948;2023-10-09T11:02:48;95381.75;;;7.03;50.98
49943;BME280;36011;53.362;58.948;2023-10-09T11:05:53;95390.31;;;7.05;51.73
49943;BME280;36011;53.362;58.948;2023-10-09T11:09:02;95387.91;;;6.91;51.57
49943;BME280;36011;53.362;58.948;2023-10-09T11:12:12;95398.25;;;6.68;52.78
49943;BME280;36011;53.362;58.948;2023-10-09T11:15:33;95400.00;;;6.92;53.22
49943;BME280;36011;53.362;58.948;2023-10-09T11:19:21;95389.22;;;6.72;53.77
49943;BME280;36011;53.362;58.948;2023-10-09T11:22:34;95393.63;;;6.48;54.78
49943;BME280;36011;53.362;58.948;2023-10-09T11:25:45;95392.69;;;6.49;54.97
49943;BME280;36011;53.362;58.948;2023-10-09T11:32:32;95411.97;;;6.59;55.06
49943;BME280;36011;53.362;58.948;2023-10-09T11:35:39;95420.47;;;6.50;55.75
49943;BME280;36011;53.362;58.948;2023-10-09T11:38:44;95429.28;;;6.49;56.43
49943;BME280;36011;53.362;58.948;2023-10-09T11:41:47;95428.22;;;6.51;56.34
49943;BME280;36011;53.362;58.948;2023-10-09T11:44:53;95435.50;;;6.59;55.82
49943;BME280;36011;53.362;58.948;2023-10-09T11:48:15;95435.94;;;6.53;56.08
49943;BME280;36011;53.362;58.948;2023-10-09T11:51:24;95440.59;;;6.37;56.19
49943;BME280;36011;53.362;58.948;2023-10-09T11:54:30;95431.59;;;6.41;56.53
49943;BME280;36011;53.362;58.948;2023-10-09T11:57:35;95417.00;;;6.25;56.77
49943;BME280;36011;53.362;58.948;2023-10-09T12:00:37;95447.50;;;6.38;57.00
49943;BME280;36011;53.362;58.948;2023-10-09T12:03:50;95450.13;;;6.38;56.59
49943;BME280;36011;53.362;58.948;2023-10-09T12:06:54;95432.88;;;6.22;57.27
49943;BME280;36011;53.362;58.948;2023-10-09T12:10:07;95426.22;;;6.18;56.83
49943;BME280;36011;53.362;58.948;2023-10-09T12:13:11;95431.44;;;6.18;57.13
49943;BME280;36011;53.362;58.948;2023-10-09T12:16:17;95434.50;;;6.12;57.35
49943;BME280;36011;53.362;58.948;2023-10-09T12:19:20;95454.00;;;6.19;57.19
49943;BME280;36011;53.362;58.948;2023-10-09T12:22:22;95456.31;;;6.24;57.40
49943;BME280;36011;53.362;58.948;2023-10-09T12:25:31;95458.22;;;6.09;58.28
49943;BME280;36011;53.362;58.948;2023-10-09T12:28:38;95453.31;;;5.92;59.14
49943;BME280;36011;53.362;58.948;2023-10-09T12:31:39;95466.06;;;6.09;58.86
49943;BME280;36011;53.362;58.948;2023-10-09T12:34:44;95462.41;;;5.99;59.65
49943;BME280;36011;53.362;58.948;2023-10-09T12:37:57;95453.38;;;5.77;60.65
49943;BME280;36011;53.362;58.948;2023-10-09T12:41:03;95437.00;;;5.88;60.81
49943;BME280;36011;53.362;58.948;2023-10-09T12:44:09;95451.94;;;5.73;61.30
49943;BME280;36011;53.362;58.948;2023-10-09T12:47:22;95443.78;;;5.65;61.58
49943;BME280;36011;53.362;58.948;2023-10-09T12:50:34;95440.66;;;5.60;62.12
49943;BME280;36011;53.362;58.948;2023-10-09T12:53:41;95475.75;;;5.56;62.57
49943;BME280;36011;53.362;58.948;2023-10-09T12:56:43;95468.63;;;5.45;62.58
49943;BME280;36011;53.362;58.948;2023-10-09T12:59:55;95474.66;;;5.46;62.86
49943;BME280;36011;53.362;58.948;2023-10-09T13:02:59;95468.41;;;5.35;62.83
49943;BME280;36011;53.362;58.948;2023-10-09T13:06:17;95479.88;;;5.33;63.08
49943;BME280;36011;53.362;58.948;2023-10-09T13:09:24;95486.03;;;5.32;63.17
49943;BME280;36011;53.362;58.948;2023-10-09T13:12:37;95440.19;;;5.02;63.36
49943;BME280;36011;53.362;58.948;2023-10-09T13:15:46;95463.16;;;5.23;63.59
49943;BME280;36011;53.362;58.948;2023-10-09T13:18:50;95426.19;;;5.03;63.75
49943;BME280;36011;53.362;58.948;2023-10-09T13:21:55;95425.91;;;5.08;63.80
49943;BME280;36011;53.362;58.948;2023-10-09T13:24:56;95433.47;;;4.98;64.15
49943;BME280;36011;53.362;58.948;2023-10-09T13:28:05;95426.72;;;4.95;64.45
49943;BME280;36011;53.362;58.948;2023-10-09T13:31:10;95425.78;;;4.97;64.64
49943;BME280;36011;53.362;58.948;2023-10-09T13:34:18;95423.66;;;4.89;64.54
49943;BME280;36011;53.362;58.948;2023-10-09T13:37:19;95438.63;;;5.00;64.53
49943;BME280;36011;53.362;58.948;2023-10-09T13:40:24;95453.50;;;4.85;64.86
49943;BME280;36011;53.362;58.948;2023-10-09T13:43:28;95455.56;;;4.92;64.89
49943;BME280;36011;53.362;58.948;2023-10-09T13:46:34;95473.50;;;4.84;65.09
49943;BME280;36011;53.362;58.948;2023-10-09T13:49:45;95471.97;;;4.94;65.17
49943;BME280;36011;53.362;58.948;2023-10-09T13:52:48;95489.81;;;5.01;65.07
49943;BME280;36011;53.362;58.948;2023-10-09T13:55:58;95488.16;;;5.00;64.91
49943;BME280;36011;53.362;58.948;2023-10-09T13:59:05;95473.09;;;4.90;65.40
49943;BME280;36011;53.362;58.948;2023-10-09T14:02:11;95484.78;;;4.98;65.34
49943;BME280;36011;53.362;58.948;2023-10-09T14:05:21;95523.75;;;4.86;65.85
49943;BME280;36011;53.362;58.948;2023-10-09T14:08:30;95518.88;;;4.94;66.22
49943;BME280;36011;53.362;58.948;2023-10-09T14:11:37;95530.44;;;4.90;66.49
49943;BME280;36011;53.362;58.948;2023-10-09T14:14:44;95521.19;;;4.72;67.19
49943;BME280;36011;53.362;58.948;2023-10-09T14:17:52;95521.53;;;4.80;67.18
49943;BME280;36011;53.362;58.948;2023-10-09T14:21:03;95530.28;;;4.79;67.52
49943;BME280;36011;53.362;58.948;2023-10-09T14:24:20;95569.00;;;4.85;67.23
49943;BME280;36011;53.362;58.948;2023-10-09T14:27:32;95546.81;;;4.92;67.01
49943;BME280;36011;53.362;58.948;2023-10-09T14:30:36;95555.41;;;4.80;67.46
49943;BME280;36011;53.362;58.948;2023-10-09T14:33:52;95538.88;;;4.81;67.56
49943;BME280;36011;53.362;58.948;2023-10-09T14:37:00;95550.56;;;4.88;67.09
49943;BME280;36011;53.362;58.948;2023-10-09T14:40:06;95532.00;;;4.66;67.87
49943;BME280;36011;53.362;58.948;2023-10-09T14:43:19;95550.13;;;4.82;67.64
49943;BME280;36011;53.362;58.948;2023-10-09T14:46:27;95553.38;;;4.71;67.85
49943;BME280;36011;53.362;58.948;2023-10-09T14:49:32;95568.75;;;4.76;67.77
49943;BME280;36011;53.362;58.948;2023-10-09T14:52:41;95560.81;;;4.77;67.59
49943;BME280;36011;53.362;58.948;2023-10-09T14:55:42;95562.31;;;4.81;67.63
49943;BME280;36011;53.362;58.948;2023-10-09T14:58:46;95555.22;;;4.83;67.60
49943;BME280;36011;53.362;58.948;2023-10-09T15:01:53;95529.38;;;4.66;68.36
49943;BME280;36011;53.362;58.948;2023-10-09T15:04:54;95513.78;;;4.52;68.00
49943;BME280;36011;53.362;58.948;2023-10-09T15:07:58;95540.75;;;4.65;68.19
49943;BME280;36011;53.362;58.948;2023-10-09T15:11:02;95541.31;;;4.56;68.83
49943;BME280;36011;53.362;58.948;2023-10-09T15:14:10;95549.28;;;4.67;68.52
49943;BME280;36011;53.362;58.948;2023-10-09T15:17:14;95560.75;;;4.64;68.69
49943;BME280;36011;53.362;58.948;2023-10-09T15:20:22;95559.53;;;4.70;68.73
49943;BME280;36011;53.362;58.948;2023-10-09T15:23:26;95555.06;;;4.58;68.88
49943;BME280;36011;53.362;58.948;2023-10-09T15:26:33;95576.31;;;4.52;69.55
49943;BME280;36011;53.362;58.948;2023-10-09T15:29:39;95585.59;;;4.56;69.49
49943;BME280;36011;53.362;58.948;2023-10-09T15:32:48;95565.31;;;4.46;70.03
49943;BME280;36011;53.362;58.948;2023-10-09T15:35:53;95571.38;;;4.47;70.10
49943;BME280;36011;53.362;58.948;2023-10-09T15:38:55;95562.63;;;4.48;70.68
49943;BME280;36011;53.362;58.948;2023-10-09T15:42:00;95560.59;;;4.53;70.17
49943;BME280;36011;53.362;58.948;2023-10-09T15:45:05;95559.09;;;4.49;70.49
49943;BME280;36011;53.362;58.948;2023-10-09T15:48:10;95566.63;;;4.54;70.49
49943;BME280;36011;53.362;58.948;2023-10-09T15:51:15;95561.41;;;4.54;70.75
49943;BME280;36011;53.362;58.948;2023-10-09T15:54:16;95550.63;;;4.45;71.00
49943;BME280;36011;53.362;58.948;2023-10-09T15:57:20;95555.47;;;4.52;71.36
49943;BME280;36011;53.362;58.948;2023-10-09T16:00:23;95570.91;;;4.40;71.60
49943;BME280;36011;53.362;58.948;2023-10-09T16:03:29;95583.38;;;4.35;72.36
49943;BME280;36011;53.362;58.948;2023-10-09T16:06:33;95580.19;;;4.44;72.47
49943;BME280;36011;53.362;58.948;2023-10-09T16:09:35;95560.31;;;4.29;72.90
49943;BME280;36011;53.362;58.948;2023-10-09T16:12:43;95554.66;;;4.22;73.37
49943;BME280;36011;53.362;58.948;2023-10-09T16:15:47;95563.75;;;4.30;73.02
49943;BME280;36011;53.362;58.948;2023-10-09T16:18:49;95535.03;;;4.31;72.92
49943;BME280;36011;53.362;58.948;2023-10-09T16:21:54;95540.78;;;4.36;72.89
49943;BME280;36011;53.362;58.948;2023-10-09T16:24:59;95560.75;;;4.36;72.81
49943;BME280;36011;53.362;58.948;2023-10-09T16:28:04;95558.09;;;4.37;72.43
49943;BME280;36011;53.362;58.948;2023-10-09T16:31:06;95558.44;;;4.45;71.81
49943;BME280;36011;53.362;58.948;2023-10-09T16:34:17;95558.00;;;4.53;71.27
49943;BME280;36011;53.362;58.948;2023-10-09T16:37:23;95561.13;;;4.44;71.13
49943;BME280;36011;53.362;58.948;2023-10-09T16:40:31;95553.41;;;4.57;70.39
49943;BME280;36011;53.362;58.948;2023-10-09T16:43:33;95546.63;;;4.54;70.20
49943;BME280;36011;53.362;58.948;2023-10-09T16:46:34;95555.81;;;4.74;69.35
49943;BME280;36011;53.362;58.948;2023-10-09T16:49:36;95554.78;;;4.77;69.04
49943;BME280;36011;53.362;58.948;2023-10-09T16:52:43;95548.66;;;4.63;69.76
49943;BME280;36011;53.362;58.948;2023-10-09T16:55:49;95549.31;;;4.53;69.70
49943;BME280;36011;53.362;58.948;2023-10-09T16:58:58;95543.19;;;4.54;69.78